sensor_id;sensor_type;location;lat;lon;timestamp;pressure;altitude;pressure_sealevel;temperature;humidity
10135;BME280;5107;48.850;8.924;2023-01-16T00:00:21;95619.66;;;1.99;81.52
10135;BME280;5107;48.850;8.924;2023-01-16T00:02:48;95614.16;;;2.02;81.70
10135;BME280;5107;48.850;8.924;2023-01-16T00:05:17;95606.22;;;2.03;81.33
10135;BME280;5107;48.850;8.924;2023-01-16T00:07:44;95607.88;;;2.04;81.59
10135;BME280;5107;48.850;8.924;2023-01-16T00:10:11;95602.41;;;2.07;81.63
10135;BME280;5107;48.850;8.924;2023-01-16T00:12:38;95597.84;;;2.09;81.41
10135;BME280;5107;48.850;8.924;2023-01-16T00:15:06;95593.88;;;2.15;80.85
10135;BME280;5107;48.850;8.924;2023-01-16T00:17:33;95596.34;;;2.16;80.77
10135;BME280;5107;48.850;8.924;2023-01-16T00:20:00;95585.00;;;2.17;81.08
10135;BME280;5107;48.850;8.924;2023-01-16T00:22:28;95577.06;;;2.19;80.69
10135;BME280;5107;48.850;8.924;2023-01-16T00:24:55;95571.94;;;2.27;80.63
10135;BME280;5107;48.850;8.924;2023-01-16T00:27:22;95575.34;;;2.27;80.21
10135;BME280;5107;48.850;8.924;2023-01-16T00:29:50;95567.44;;;2.29;80.42
10135;BME280;5107;48.850;8.924;2023-01-16T00:32:17;95565.50;;;2.31;80.06
10135;BME280;5107;48.850;8.924;2023-01-16T00:34:44;95549.13;;;2.31;80.26
10135;BME280;5107;48.850;8.924;2023-01-16T00:37:11;95546.66;;;2.29;80.56
10135;BME280;5107;48.850;8.924;2023-01-16T00:39:39;95538.22;;;2.27;80.58
10135;BME280;5107;48.850;8.924;2023-01-16T00:42:06;95538.44;;;2.16;80.90
10135;BME280;5107;48.850;8.924;2023-01-16T00:44:33;95536.81;;;2.15;80.98
10135;BME280;5107;48.850;8.924;2023-01-16T00:47:00;95528.50;;;2.11;80.99
10135;BME280;5107;48.850;8.924;2023-01-16T00:49:28;95520.72;;;2.11;81.21
10135;BME280;5107;48.850;8.924;2023-01-16T00:51:55;95520.03;;;2.09;81.00
10135;BME280;5107;48.850;8.924;2023-01-16T00:54:22;95520.94;;;2.00;81.49
10135;BME280;5107;48.850;8.924;2023-01-16T00:56:50;95511.97;;;1.95;81.69
10135;BME280;5107;48.850;8.924;2023-01-16T00:59:17;95501.22;;;1.89;82.00
10135;BME280;5107;48.850;8.924;2023-01-16T01:01:44;95498.09;;;1.86;82.17
10135;BME280;5107;48.850;8.924;2023-01-16T01:04:11;95492.91;;;1.86;81.89
10135;BME280;5107;48.850;8.924;2023-01-16T01:06:39;95495.97;;;1.81;82.25
10135;BME280;5107;48.850;8.924;2023-01-16T01:09:06;95494.69;;;1.85;82.14
10135;BME280;5107;48.850;8.924;2023-01-16T01:11:33;95483.81;;;1.82;81.87
10135;BME280;5107;48.850;8.924;2023-01-16T01:14:02;95476.84;;;1.82;81.86
10135;BME280;5107;48.850;8.924;2023-01-16T01:16:29;95471.59;;;1.74;82.31
10135;BME280;5107;48.850;8.924;2023-01-16T01:18:56;95470.78;;;1.74;82.56
10135;BME280;5107;48.850;8.924;2023-01-16T01:21:23;95469.06;;;1.82;81.57
10135;BME280;5107;48.850;8.924;2023-01-16T01:23:50;95470.03;;;1.81;81.49
10135;BME280;5107;48.850;8.924;2023-01-16T01:26:18;95468.53;;;1.79;81.63
10135;BME280;5107;48.850;8.924;2023-01-16T01:28:46;95456.69;;;1.76;81.78
10135;BME280;5107;48.850;8.924;2023-01-16T01:31:14;95458.09;;;1.71;82.29
10135;BME280;5107;48.850;8.924;2023-01-16T01:33:41;95458.78;;;1.73;82.00
10135;BME280;5107;48.850;8.924;2023-01-16T01:36:09;95454.69;;;1.70;82.19
10135;BME280;5107;48.850;8.924;2023-01-16T01:38:36;95452.63;;;1.74;81.90
10135;BME280;5107;48.850;8.924;2023-01-16T01:41:04;95444.16;;;1.72;82.36
10135;BME280;5107;48.850;8.924;2023-01-16T01:43:43;95442.69;;;1.69;82.25
10135;BME280;5107;48.850;8.924;2023-01-16T01:46:21;95436.19;;;1.65;82.79
10135;BME280;5107;48.850;8.924;2023-01-16T01:48:55;95434.69;;;1.63;82.33
10135;BME280;5107;48.850;8.924;2023-01-16T01:51:27;95420.09;;;1.62;82.30
10135;BME280;5107;48.850;8.924;2023-01-16T01:53:59;95414.41;;;1.58;82.48
10135;BME280;5107;48.850;8.924;2023-01-16T01:56:32;95413.00;;;1.64;82.22
10135;BME280;5107;48.850;8.924;2023-01-16T01:59:06;95398.25;;;1.64;82.22
10135;BME280;5107;48.850;8.924;2023-01-16T02:01:36;95390.63;;;1.63;82.20
10135;BME280;5107;48.850;8.924;2023-01-16T02:04:07;95383.81;;;1.62;82.50
10135;BME280;5107;48.850;8.924;2023-01-16T02:06:42;95383.00;;;1.61;82.18
10135;BME280;5107;48.850;8.924;2023-01-16T02:09:11;95377.81;;;1.61;82.14
10135;BME280;5107;48.850;8.924;2023-01-16T02:11:50;95368.56;;;1.59;82.34
10135;BME280;5107;48.850;8.924;2023-01-16T02:14:20;95355.44;;;1.60;82.46
10135;BME280;5107;48.850;8.924;2023-01-16T02:16:55;95351.00;;;1.70;81.65
10135;BME280;5107;48.850;8.924;2023-01-16T02:19:47;95337.44;;;1.76;81.33
10135;BME280;5107;48.850;8.924;2023-01-16T02:26:06;95328.19;;;1.74;81.56
10135;BME280;5107;48.850;8.924;2023-01-16T02:29:08;95320.41;;;1.74;81.41
10135;BME280;5107;48.850;8.924;2023-01-16T02:31:48;95310.78;;;1.84;81.12
10135;BME280;5107;48.850;8.924;2023-01-16T02:34:48;95301.19;;;1.84;80.97
10135;BME280;5107;48.850;8.924;2023-01-16T02:37:29;95298.09;;;1.81;80.96
10135;BME280;5107;48.850;8.924;2023-01-16T02:40:11;95297.44;;;1.79;81.44
10135;BME280;5107;48.850;8.924;2023-01-16T02:42:45;95287.06;;;1.79;81.44
10135;BME280;5107;48.850;8.924;2023-01-16T02:45:21;95278.69;;;1.85;81.26
10135;BME280;5107;48.850;8.924;2023-01-16T02:47:58;95271.72;;;1.85;81.24
10135;BME280;5107;48.850;8.924;2023-01-16T02:50:30;95267.19;;;1.87;81.05
10135;BME280;5107;48.850;8.924;2023-01-16T02:53:02;95260.75;;;1.92;80.67
10135;BME280;5107;48.850;8.924;2023-01-16T02:55:43;95251.84;;;1.94;80.92
10135;BME280;5107;48.850;8.924;2023-01-16T02:58:13;95256.06;;;1.95;80.50
10135;BME280;5107;48.850;8.924;2023-01-16T03:00:49;95254.56;;;1.92;80.67
10135;BME280;5107;48.850;8.924;2023-01-16T03:03:38;95237.09;;;1.95;80.53
10135;BME280;5107;48.850;8.924;2023-01-16T03:06:25;95222.72;;;2.00;80.21
10135;BME280;5107;48.850;8.924;2023-01-16T03:09:08;95218.16;;;2.02;80.03
10135;BME280;5107;48.850;8.924;2023-01-16T03:11:43;95215.13;;;2.07;79.52
10135;BME280;5107;48.850;8.924;2023-01-16T03:14:28;95212.19;;;2.10;79.39
10135;BME280;5107;48.850;8.924;2023-01-16T03:17:13;95202.84;;;2.17;78.96
10135;BME280;5107;48.850;8.924;2023-01-16T03:19:59;95191.66;;;2.16;79.23
10135;BME280;5107;48.850;8.924;2023-01-16T03:22:39;95180.00;;;2.20;78.55
10135;BME280;5107;48.850;8.924;2023-01-16T03:25:26;95174.81;;;2.28;78.52
10135;BME280;5107;48.850;8.924;2023-01-16T03:28:03;95166.59;;;2.33;78.29
10135;BME280;5107;48.850;8.924;2023-01-16T03:30:45;95154.75;;;2.39;77.67
10135;BME280;5107;48.850;8.924;2023-01-16T03:33:23;95159.94;;;2.39;78.03
10135;BME280;5107;48.850;8.924;2023-01-16T03:36:01;95146.84;;;2.48;77.52
10135;BME280;5107;48.850;8.924;2023-01-16T03:38:31;95144.25;;;2.48;77.19
10135;BME280;5107;48.850;8.924;2023-01-16T03:41:02;95139.06;;;2.48;77.81
10135;BME280;5107;48.850;8.924;2023-01-16T03:43:33;95129.31;;;2.50;77.26
10135;BME280;5107;48.850;8.924;2023-01-16T03:46:07;95125.25;;;2.48;77.25
10135;BME280;5107;48.850;8.924;2023-01-16T03:48:41;95124.75;;;2.52;77.33
10135;BME280;5107;48.850;8.924;2023-01-16T03:51:19;95110.66;;;2.55;76.44
10135;BME280;5107;48.850;8.924;2023-01-16T03:53:57;95113.25;;;2.55;76.71
10135;BME280;5107;48.850;8.924;2023-01-16T03:56:33;95091.84;;;2.53;76.81
10135;BME280;5107;48.850;8.924;2023-01-16T03:59:02;95090.41;;;2.50;77.04
10135;BME280;5107;48.850;8.924;2023-01-16T04:01:37;95068.66;;;2.59;77.05
10135;BME280;5107;48.850;8.924;2023-01-16T04:04:08;95062.31;;;2.62;76.65
10135;BME280;5107;48.850;8.924;2023-01-16T04:06:45;95068.31;;;2.62;76.69
10135;BME280;5107;48.850;8.924;2023-01-16T04:09:21;95053.72;;;2.61;76.84
10135;BME280;5107;48.850;8.924;2023-01-16T04:11:51;95054.69;;;2.60;76.76
10135;BME280;5107;48.850;8.924;2023-01-16T04:14:22;95042.72;;;2.59;76.81
10135;BME280;5107;48.850;8.924;2023-01-16T04:16:51;95031.97;;;2.62;77.04
10135;BME280;5107;48.850;8.924;2023-01-16T04:19:18;95026.47;;;2.65;76.75
10135;BME280;5107;48.850;8.924;2023-01-16T04:21:49;95019.16;;;2.69;75.19
10135;BME280;5107;48.850;8.924;2023-01-16T04:24:16;95007.00;;;2.70;75.32
10135;BME280;5107;48.850;8.924;2023-01-16T04:26:44;95004.38;;;2.70;75.34
10135;BME280;5107;48.850;8.924;2023-01-16T04:29:11;95000.34;;;2.67;75.63
10135;BME280;5107;48.850;8.924;2023-01-16T04:31:38;94991.25;;;2.63;75.69
10135;BME280;5107;48.850;8.924;2023-01-16T04:34:05;94982.66;;;2.62;75.47
10135;BME280;5107;48.850;8.924;2023-01-16T04:36:32;94981.69;;;2.63;75.58
10135;BME280;5107;48.850;8.924;2023-01-16T04:39:00;94967.44;;;2.59;75.69
10135;BME280;5107;48.850;8.924;2023-01-16T04:41:27;94952.34;;;2.55;75.95
10135;BME280;5107;48.850;8.924;2023-01-16T04:44:11;94950.56;;;2.55;75.43
10135;BME280;5107;48.850;8.924;2023-01-16T04:46:38;94930.31;;;2.51;75.50
10135;BME280;5107;48.850;8.924;2023-01-16T04:49:06;94927.06;;;2.49;75.68
10135;BME280;5107;48.850;8.924;2023-01-16T04:51:33;94917.47;;;2.49;75.19
10135;BME280;5107;48.850;8.924;2023-01-16T04:54:02;94904.16;;;2.52;75.32
10135;BME280;5107;48.850;8.924;2023-01-16T04:56:29;94906.59;;;2.46;75.86
10135;BME280;5107;48.850;8.924;2023-01-16T04:58:56;94896.91;;;2.40;76.38
10135;BME280;5107;48.850;8.924;2023-01-16T05:01:23;94898.03;;;2.37;75.87
10135;BME280;5107;48.850;8.924;2023-01-16T05:03:51;94881.81;;;2.35;76.01
10135;BME280;5107;48.850;8.924;2023-01-16T05:06:18;94866.09;;;2.37;76.28
10135;BME280;5107;48.850;8.924;2023-01-16T05:08:45;94856.22;;;2.32;76.22
10135;BME280;5107;48.850;8.924;2023-01-16T05:11:14;94864.47;;;2.27;76.66
10135;BME280;5107;48.850;8.924;2023-01-16T05:13:41;94850.22;;;2.32;76.30
10135;BME280;5107;48.850;8.924;2023-01-16T05:16:08;94848.75;;;2.29;76.36
10135;BME280;5107;48.850;8.924;2023-01-16T05:18:35;94835.94;;;2.27;76.19
10135;BME280;5107;48.850;8.924;2023-01-16T05:21:02;94838.22;;;2.22;76.62
10135;BME280;5107;48.850;8.924;2023-01-16T05:23:30;94823.81;;;2.20;76.67
10135;BME280;5107;48.850;8.924;2023-01-16T05:25:59;94827.38;;;2.19;76.69
10135;BME280;5107;48.850;8.924;2023-01-16T05:28:27;94807.44;;;2.19;76.76
10135;BME280;5107;48.850;8.924;2023-01-16T05:30:54;94802.38;;;2.26;75.88
10135;BME280;5107;48.850;8.924;2023-01-16T05:33:21;94793.16;;;2.23;76.48
10135;BME280;5107;48.850;8.924;2023-01-16T05:35:49;94783.59;;;2.24;76.38
10135;BME280;5107;48.850;8.924;2023-01-16T05:38:17;94771.72;;;2.29;75.85
10135;BME280;5107;48.850;8.924;2023-01-16T05:40:44;94769.66;;;2.25;76.20
10135;BME280;5107;48.850;8.924;2023-01-16T05:43:11;94763.66;;;2.24;75.98
10135;BME280;5107;48.850;8.924;2023-01-16T05:45:40;94749.53;;;2.27;75.69
10135;BME280;5107;48.850;8.924;2023-01-16T05:48:07;94726.81;;;2.29;75.70
10135;BME280;5107;48.850;8.924;2023-01-16T05:50:34;94740.59;;;2.29;75.64
10135;BME280;5107;48.850;8.924;2023-01-16T05:53:02;94723.91;;;2.32;75.34
10135;BME280;5107;48.850;8.924;2023-01-16T05:55:30;94722.28;;;2.31;74.93
10135;BME280;5107;48.850;8.924;2023-01-16T05:57:57;94712.34;;;2.35;74.76
10135;BME280;5107;48.850;8.924;2023-01-16T06:00:24;94695.53;;;2.31;75.19
10135;BME280;5107;48.850;8.924;2023-01-16T06:02:52;94697.97;;;2.32;74.73
10135;BME280;5107;48.850;8.924;2023-01-16T06:05:19;94694.38;;;2.33;74.85
10135;BME280;5107;48.850;8.924;2023-01-16T06:07:46;94683.19;;;2.33;74.51
10135;BME280;5107;48.850;8.924;2023-01-16T06:10:14;94669.06;;;2.35;74.49
10135;BME280;5107;48.850;8.924;2023-01-16T06:12:41;94659.13;;;2.47;73.87
10135;BME280;5107;48.850;8.924;2023-01-16T06:15:09;94645.50;;;2.45;73.98
10135;BME280;5107;48.850;8.924;2023-01-16T06:17:36;94639.81;;;2.49;73.20
10135;BME280;5107;48.850;8.924;2023-01-16T06:20:05;94639.81;;;2.49;73.84
10135;BME280;5107;48.850;8.924;2023-01-16T06:22:32;94626.03;;;2.49;73.35
10135;BME280;5107;48.850;8.924;2023-01-16T06:24:59;94621.00;;;2.47;73.01
10135;BME280;5107;48.850;8.924;2023-01-16T06:27:26;94617.31;;;2.42;74.00
10135;BME280;5107;48.850;8.924;2023-01-16T06:29:53;94615.53;;;2.42;73.87
10135;BME280;5107;48.850;8.924;2023-01-16T06:32:20;94605.81;;;2.36;74.30
10135;BME280;5107;48.850;8.924;2023-01-16T06:34:47;94596.91;;;2.39;74.33
10135;BME280;5107;48.850;8.924;2023-01-16T06:37:16;94590.25;;;2.36;74.16
10135;BME280;5107;48.850;8.924;2023-01-16T06:39:43;94586.50;;;2.39;74.32
10135;BME280;5107;48.850;8.924;2023-01-16T06:42:10;94576.31;;;2.37;74.11
10135;BME280;5107;48.850;8.924;2023-01-16T06:44:37;94562.34;;;2.38;73.95
10135;BME280;5107;48.850;8.924;2023-01-16T06:47:04;94565.44;;;2.42;73.84
10135;BME280;5107;48.850;8.924;2023-01-16T06:49:32;94558.09;;;2.45;73.57
10135;BME280;5107;48.850;8.924;2023-01-16T06:51:59;94557.09;;;2.46;73.36
10135;BME280;5107;48.850;8.924;2023-01-16T06:54:28;94554.50;;;2.46;73.14
10135;BME280;5107;48.850;8.924;2023-01-16T06:56:55;94549.31;;;2.46;72.92
10135;BME280;5107;48.850;8.924;2023-01-16T06:59:22;94554.97;;;2.50;73.04
10135;BME280;5107;48.850;8.924;2023-01-16T07:01:49;94543.97;;;2.48;72.47
10135;BME280;5107;48.850;8.924;2023-01-16T07:04:16;94533.41;;;2.49;72.92
10135;BME280;5107;48.850;8.924;2023-01-16T07:06:43;94527.25;;;2.50;72.73
10135;BME280;5107;48.850;8.924;2023-01-16T07:09:10;94524.81;;;2.49;72.68
10135;BME280;5107;48.850;8.924;2023-01-16T07:11:39;94525.56;;;2.57;72.54
10135;BME280;5107;48.850;8.924;2023-01-16T07:14:06;94519.38;;;2.58;72.56
10135;BME280;5107;48.850;8.924;2023-01-16T07:16:51;94524.28;;;2.53;72.18
10135;BME280;5107;48.850;8.924;2023-01-16T07:19:40;94527.25;;;2.50;72.79
10135;BME280;5107;48.850;8.924;2023-01-16T07:22:25;94517.78;;;2.57;72.69
10135;BME280;5107;48.850;8.924;2023-01-16T07:25:08;94507.75;;;2.69;72.12
10135;BME280;5107;48.850;8.924;2023-01-16T07:27:37;94505.88;;;2.78;71.07
10135;BME280;5107;48.850;8.924;2023-01-16T07:30:07;94501.00;;;2.83;71.71
10135;BME280;5107;48.850;8.924;2023-01-16T07:32:35;94493.56;;;2.94;71.09
10135;BME280;5107;48.850;8.924;2023-01-16T07:35:02;94492.31;;;2.90;70.72
10135;BME280;5107;48.850;8.924;2023-01-16T07:37:30;94489.72;;;2.76;71.45
10135;BME280;5107;48.850;8.924;2023-01-16T07:39:57;94493.38;;;2.66;71.23
10135;BME280;5107;48.850;8.924;2023-01-16T07:42:24;94479.09;;;2.62;72.13
10135;BME280;5107;48.850;8.924;2023-01-16T07:44:52;94467.28;;;2.60;72.02
10135;BME280;5107;48.850;8.924;2023-01-16T07:47:19;94465.78;;;2.65;71.50
10135;BME280;5107;48.850;8.924;2023-01-16T07:49:46;94454.84;;;2.70;71.32
10135;BME280;5107;48.850;8.924;2023-01-16T07:52:14;94448.34;;;2.74;71.11
10135;BME280;5107;48.850;8.924;2023-01-16T07:54:42;94443.78;;;2.76;70.92
10135;BME280;5107;48.850;8.924;2023-01-16T07:57:10;94445.50;;;2.84;70.58
10135;BME280;5107;48.850;8.924;2023-01-16T07:59:37;94438.03;;;2.81;70.58
10135;BME280;5107;48.850;8.924;2023-01-16T08:02:05;94423.28;;;2.81;70.93
10135;BME280;5107;48.850;8.924;2023-01-16T08:04:32;94428.00;;;2.78;70.92
10135;BME280;5107;48.850;8.924;2023-01-16T08:06:59;94416.66;;;2.79;71.21
10135;BME280;5107;48.850;8.924;2023-01-16T08:09:27;94420.22;;;2.78;70.74
10135;BME280;5107;48.850;8.924;2023-01-16T08:11:54;94418.88;;;2.82;70.60
10135;BME280;5107;48.850;8.924;2023-01-16T08:14:21;94403.84;;;2.77;70.81
10135;BME280;5107;48.850;8.924;2023-01-16T08:16:48;94408.84;;;2.79;70.69
10135;BME280;5107;48.850;8.924;2023-01-16T08:19:16;94409.84;;;2.78;70.78
10135;BME280;5107;48.850;8.924;2023-01-16T08:21:43;94393.66;;;2.76;71.44
10135;BME280;5107;48.850;8.924;2023-01-16T08:24:11;94401.63;;;2.74;71.44
10135;BME280;5107;48.850;8.924;2023-01-16T08:26:41;94389.63;;;2.73;71.29
10135;BME280;5107;48.850;8.924;2023-01-16T08:29:09;94393.38;;;2.71;71.18
10135;BME280;5107;48.850;8.924;2023-01-16T08:31:36;94382.00;;;2.72;71.37
10135;BME280;5107;48.850;8.924;2023-01-16T08:34:03;94383.38;;;2.67;71.64
10135;BME280;5107;48.850;8.924;2023-01-16T08:36:32;94385.97;;;2.67;71.53
10135;BME280;5107;48.850;8.924;2023-01-16T08:38:59;94382.00;;;2.72;70.94
10135;BME280;5107;48.850;8.924;2023-01-16T08:41:26;94378.94;;;2.68;71.86
10135;BME280;5107;48.850;8.924;2023-01-16T08:44:11;94387.19;;;2.72;71.29
10135;BME280;5107;48.850;8.924;2023-01-16T08:46:59;94384.59;;;2.72;70.95
10135;BME280;5107;48.850;8.924;2023-01-16T08:49:45;94382.19;;;2.70;71.79
10135;BME280;5107;48.850;8.924;2023-01-16T08:52:31;94373.88;;;2.75;71.23
10135;BME280;5107;48.850;8.924;2023-01-16T08:54:59;94384.59;;;2.72;71.27
10135;BME280;5107;48.850;8.924;2023-01-16T08:57:27;94374.41;;;2.70;71.43
10135;BME280;5107;48.850;8.924;2023-01-16T08:59:55;94385.59;;;2.71;71.77
10135;BME280;5107;48.850;8.924;2023-01-16T09:02:22;94387.03;;;2.73;71.26
10135;BME280;5107;48.850;8.924;2023-01-16T09:04:50;94399.19;;;2.73;72.01
10135;BME280;5107;48.850;8.924;2023-01-16T09:07:17;94408.78;;;2.72;71.32
10135;BME280;5107;48.850;8.924;2023-01-16T09:09:45;94387.03;;;2.73;71.58
10135;BME280;5107;48.850;8.924;2023-01-16T09:12:13;94380.22;;;2.72;71.38
10135;BME280;5107;48.850;8.924;2023-01-16T09:14:59;94370.00;;;2.71;71.92
10135;BME280;5107;48.850;8.924;2023-01-16T09:17:27;94360.00;;;2.67;71.98
10135;BME280;5107;48.850;8.924;2023-01-16T09:19:54;94362.59;;;2.67;71.43
10135;BME280;5107;48.850;8.924;2023-01-16T09:22:22;94359.44;;;2.72;70.77
10135;BME280;5107;48.850;8.924;2023-01-16T09:24:50;94352.47;;;2.73;71.05
10135;BME280;5107;48.850;8.924;2023-01-16T09:27:18;94346.94;;;2.76;70.90
10135;BME280;5107;48.850;8.924;2023-01-16T09:29:46;94345.22;;;2.83;71.02
10135;BME280;5107;48.850;8.924;2023-01-16T09:32:13;94331.50;;;2.89;69.95
10135;BME280;5107;48.850;8.924;2023-01-16T09:34:42;94321.34;;;2.94;69.61
10135;BME280;5107;48.850;8.924;2023-01-16T09:37:09;94325.84;;;3.00;69.91
10135;BME280;5107;48.850;8.924;2023-01-16T09:39:37;94320.81;;;2.98;69.98
10135;BME280;5107;48.850;8.924;2023-01-16T09:45:25;94315.16;;;3.10;69.75
10135;BME280;5107;48.850;8.924;2023-01-16T09:47:57;94305.44;;;3.18;69.39
10135;BME280;5107;48.850;8.924;2023-01-16T09:50:32;94303.28;;;3.22;69.40
10135;BME280;5107;48.850;8.924;2023-01-16T09:53:04;94296.53;;;3.27;68.66
10135;BME280;5107;48.850;8.924;2023-01-16T09:55:56;94299.22;;;3.34;68.62
10135;BME280;5107;48.850;8.924;2023-01-16T09:58:48;94291.78;;;3.31;69.00
10135;BME280;5107;48.850;8.924;2023-01-16T10:01:28;94289.50;;;3.42;68.34
10135;BME280;5107;48.850;8.924;2023-01-16T10:04:10;94275.38;;;3.52;68.15
10135;BME280;5107;48.850;8.924;2023-01-16T10:06:52;94261.50;;;3.66;66.78
10135;BME280;5107;48.850;8.924;2023-01-16T10:09:28;94252.78;;;3.80;66.11
10135;BME280;5107;48.850;8.924;2023-01-16T10:12:03;94253.03;;;3.85;66.01
10135;BME280;5107;48.850;8.924;2023-01-16T10:15:13;94253.13;;;3.98;65.27
10135;BME280;5107;48.850;8.924;2023-01-16T10:17:52;94251.72;;;4.02;64.38
10135;BME280;5107;48.850;8.924;2023-01-16T10:20:44;94240.97;;;4.05;64.67
10135;BME280;5107;48.850;8.924;2023-01-16T10:23:39;94243.19;;;4.08;64.11
10135;BME280;5107;48.850;8.924;2023-01-16T10:26:15;94232.63;;;4.16;63.63
10135;BME280;5107;48.850;8.924;2023-01-16T10:28:57;94238.66;;;4.24;63.05
10135;BME280;5107;48.850;8.924;2023-01-16T10:31:33;94236.25;;;4.22;63.08
10135;BME280;5107;48.850;8.924;2023-01-16T10:34:08;94223.22;;;4.22;63.07
10135;BME280;5107;48.850;8.924;2023-01-16T10:36:41;94235.06;;;4.25;63.77
10135;BME280;5107;48.850;8.924;2023-01-16T10:39:12;94215.06;;;4.25;62.71
10135;BME280;5107;48.850;8.924;2023-01-16T10:41:46;94212.25;;;4.27;63.04
10135;BME280;5107;48.850;8.924;2023-01-16T10:44:34;94206.03;;;4.28;62.13
10135;BME280;5107;48.850;8.924;2023-01-16T10:47:23;94199.25;;;4.27;63.46
10135;BME280;5107;48.850;8.924;2023-01-16T10:50:10;94198.84;;;4.30;63.27
10135;BME280;5107;48.850;8.924;2023-01-16T10:52:38;94189.63;;;4.27;62.18
10135;BME280;5107;48.850;8.924;2023-01-16T10:55:07;94191.22;;;4.28;62.87
10135;BME280;5107;48.850;8.924;2023-01-16T10:57:36;94173.81;;;4.29;62.92
10135;BME280;5107;48.850;8.924;2023-01-16T11:00:18;94179.03;;;4.35;62.48
10135;BME280;5107;48.850;8.924;2023-01-16T11:02:48;94164.84;;;4.44;62.34
10135;BME280;5107;48.850;8.924;2023-01-16T11:05:24;94170.28;;;4.49;61.85
10135;BME280;5107;48.850;8.924;2023-01-16T11:07:53;94148.09;;;4.60;61.22
10135;BME280;5107;48.850;8.924;2023-01-16T11:10:22;94144.28;;;4.69;62.22
10135;BME280;5107;48.850;8.924;2023-01-16T11:12:51;94143.72;;;4.67;62.62
10135;BME280;5107;48.850;8.924;2023-01-16T11:15:36;94135.28;;;4.65;63.09
10135;BME280;5107;48.850;8.924;2023-01-16T11:18:27;94134.06;;;4.61;64.28
10135;BME280;5107;48.850;8.924;2023-01-16T11:21:00;94135.66;;;4.55;64.77
10135;BME280;5107;48.850;8.924;2023-01-16T11:23:38;94116.25;;;4.51;65.12
10135;BME280;5107;48.850;8.924;2023-01-16T11:26:06;94115.44;;;4.51;66.34
10135;BME280;5107;48.850;8.924;2023-01-16T11:28:34;94108.81;;;4.48;66.78
10135;BME280;5107;48.850;8.924;2023-01-16T11:31:05;94122.03;;;4.47;67.60
10135;BME280;5107;48.850;8.924;2023-01-16T11:33:40;94102.19;;;4.46;67.51
10135;BME280;5107;48.850;8.924;2023-01-16T11:36:09;94095.19;;;4.46;67.72
10135;BME280;5107;48.850;8.924;2023-01-16T11:38:38;94089.16;;;4.46;68.19
10135;BME280;5107;48.850;8.924;2023-01-16T11:41:10;94083.97;;;4.46;69.59
10135;BME280;5107;48.850;8.924;2023-01-16T11:43:37;94081.78;;;4.49;69.33
10135;BME280;5107;48.850;8.924;2023-01-16T11:46:33;94078.75;;;4.52;68.91
10135;BME280;5107;48.850;8.924;2023-01-16T11:49:15;94054.94;;;4.49;69.49
10135;BME280;5107;48.850;8.924;2023-01-16T11:51:42;94055.94;;;4.48;70.19
10135;BME280;5107;48.850;8.924;2023-01-16T11:54:13;94042.53;;;4.51;69.72
10135;BME280;5107;48.850;8.924;2023-01-16T11:56:49;94039.94;;;4.51;70.47
10135;BME280;5107;48.850;8.924;2023-01-16T12:00:02;94021.53;;;4.59;70.20
10135;BME280;5107;48.850;8.924;2023-01-16T12:03:28;94017.69;;;4.62;69.63
10135;BME280;5107;48.850;8.924;2023-01-16T12:06:11;94013.69;;;4.66;69.75
10135;BME280;5107;48.850;8.924;2023-01-16T12:09:12;94009.09;;;4.74;69.60
10135;BME280;5107;48.850;8.924;2023-01-16T12:12:02;94003.47;;;4.71;69.21
10135;BME280;5107;48.850;8.924;2023-01-16T12:15:01;94002.09;;;4.75;69.53
10135;BME280;5107;48.850;8.924;2023-01-16T12:17:42;93989.66;;;4.70;69.72
10135;BME280;5107;48.850;8.924;2023-01-16T12:20:25;93965.63;;;4.75;69.82
10135;BME280;5107;48.850;8.924;2023-01-16T12:23:32;93968.41;;;4.73;70.02
10135;BME280;5107;48.850;8.924;2023-01-16T12:26:11;93949.81;;;4.76;69.85
10135;BME280;5107;48.850;8.924;2023-01-16T12:34:52;93944.59;;;4.76;70.53
10135;BME280;5107;48.850;8.924;2023-01-16T12:37:45;93940.34;;;4.88;71.06
10135;BME280;5107;48.850;8.924;2023-01-16T12:40:33;93927.94;;;4.84;71.00
10135;BME280;5107;48.850;8.924;2023-01-16T12:43:17;93919.31;;;4.83;71.11
10135;BME280;5107;48.850;8.924;2023-01-16T12:45:51;93903.13;;;4.75;71.52
10135;BME280;5107;48.850;8.924;2023-01-16T12:48:41;93905.72;;;4.75;71.96
10135;BME280;5107;48.850;8.924;2023-01-16T12:51:44;93902.69;;;4.84;71.61
10135;BME280;5107;48.850;8.924;2023-01-16T12:54:40;93904.69;;;4.82;71.82
10135;BME280;5107;48.850;8.924;2023-01-16T12:57:42;93899.63;;;4.94;71.65
10135;BME280;5107;48.850;8.924;2023-01-16T13:00:16;93894.44;;;4.94;71.42
10135;BME280;5107;48.850;8.924;2023-01-16T13:02:54;93897.84;;;5.01;71.87
10135;BME280;5107;48.850;8.924;2023-01-16T13:05:27;93886.97;;;5.11;71.45
10135;BME280;5107;48.850;8.924;2023-01-16T13:08:00;93877.91;;;5.20;71.39
10135;BME280;5107;48.850;8.924;2023-01-16T13:10:30;93867.47;;;5.26;71.33
10135;BME280;5107;48.850;8.924;2023-01-16T13:13:20;93864.91;;;5.13;70.99
10135;BME280;5107;48.850;8.924;2023-01-16T13:16:06;93846.44;;;5.21;70.43
10135;BME280;5107;48.850;8.924;2023-01-16T13:18:38;93835.09;;;5.41;70.50
10135;BME280;5107;48.850;8.924;2023-01-16T13:21:12;93834.22;;;5.53;70.03
10135;BME280;5107;48.850;8.924;2023-01-16T13:23:47;93824.16;;;5.57;70.29
10135;BME280;5107;48.850;8.924;2023-01-16T13:26:17;93827.38;;;5.84;69.39
10135;BME280;5107;48.850;8.924;2023-01-16T13:28:52;93829.00;;;5.85;69.23
10135;BME280;5107;48.850;8.924;2023-01-16T13:31:30;93828.91;;;5.98;68.60
10135;BME280;5107;48.850;8.924;2023-01-16T13:34:04;93831.63;;;6.09;68.27
10135;BME280;5107;48.850;8.924;2023-01-16T13:37:19;93821.19;;;6.53;66.83
10135;BME280;5107;48.850;8.924;2023-01-16T13:40:24;93806.06;;;6.55;65.99
10135;BME280;5107;48.850;8.924;2023-01-16T13:42:56;93786.41;;;6.70;66.46
10135;BME280;5107;48.850;8.924;2023-01-16T13:45:47;93809.91;;;6.70;66.00
10135;BME280;5107;48.850;8.924;2023-01-16T13:48:15;93785.19;;;6.55;66.38
10135;BME280;5107;48.850;8.924;2023-01-16T13:50:50;93795.09;;;6.28;66.74
10135;BME280;5107;48.850;8.924;2023-01-16T13:53:19;93793.66;;;6.32;66.80
10135;BME280;5107;48.850;8.924;2023-01-16T13:55:49;93783.44;;;6.30;67.25
10135;BME280;5107;48.850;8.924;2023-01-16T13:58:20;93790.88;;;6.08;67.74
10135;BME280;5107;48.850;8.924;2023-01-16T14:00:59;93802.31;;;5.83;69.21
10135;BME280;5107;48.850;8.924;2023-01-16T14:03:28;93787.59;;;5.63;69.54
10135;BME280;5107;48.850;8.924;2023-01-16T14:06:21;93784.19;;;5.63;70.06
10135;BME280;5107;48.850;8.924;2023-01-16T14:09:12;93784.47;;;5.55;70.59